sensor_id;sensor_type;location;lat;lon;timestamp;temperature;humidity
69281;SHT31;56392;51.082;17.080;2024-01-15T00:01:16;1.74;84.07
69281;SHT31;56392;51.082;17.080;2024-01-15T00:06:40;1.75;83.48
69281;SHT31;56392;51.082;17.080;2024-01-15T00:12:05;1.78;83.06
69281;SHT31;56392;51.082;17.080;2024-01-15T00:17:30;1.82;82.52
69281;SHT31;56392;51.082;17.080;2024-01-15T00:22:53;1.74;82.64
69281;SHT31;56392;51.082;17.080;2024-01-15T00:28:18;1.74;82.63
69281;SHT31;56392;51.082;17.080;2024-01-15T00:33:42;1.77;82.38
69281;SHT31;56392;51.082;17.080;2024-01-15T00:39:06;1.68;82.32
69281;SHT31;56392;51.082;17.080;2024-01-15T00:44:31;1.64;82.23
69281;SHT31;56392;51.082;17.080;2024-01-15T00:49:56;1.60;82.36
69281;SHT31;56392;51.082;17.080;2024-01-15T00:55:19;1.58;82.46
69281;SHT31;56392;51.082;17.080;2024-01-15T01:00:45;1.65;81.36
69281;SHT31;56392;51.082;17.080;2024-01-15T01:06:08;1.67;80.77
69281;SHT31;56392;51.082;17.080;2024-01-15T01:11:31;1.74;80.46
69281;SHT31;56392;51.082;17.080;2024-01-15T01:16:56;1.74;80.21
69281;SHT31;56392;51.082;17.080;2024-01-15T01:22:19;1.77;80.19
69281;SHT31;56392;51.082;17.080;2024-01-15T01:27:42;1.77;79.76
69281;SHT31;56392;51.082;17.080;2024-01-15T01:33:08;1.84;79.60
69281;SHT31;56392;51.082;17.080;2024-01-15T01:38:31;1.85;79.00
69281;SHT31;56392;51.082;17.080;2024-01-15T01:43:54;1.91;78.81
69281;SHT31;56392;51.082;17.080;2024-01-15T01:49:18;1.91;78.58
69281;SHT31;56392;51.082;17.080;2024-01-15T01:54:41;1.89;78.30
69281;SHT31;56392;51.082;17.080;2024-01-15T02:00:07;1.91;77.94
69281;SHT31;56392;51.082;17.080;2024-01-15T02:05:32;1.94;77.53
69281;SHT31;56392;51.082;17.080;2024-01-15T02:10:56;1.92;79.33
69281;SHT31;56392;51.082;17.080;2024-01-15T02:16:19;1.79;80.81
69281;SHT31;56392;51.082;17.080;2024-01-15T02:21:43;1.75;81.72
69281;SHT31;56392;51.082;17.080;2024-01-15T02:27:09;1.61;82.91
69281;SHT31;56392;51.082;17.080;2024-01-15T02:32:32;1.57;83.18
69281;SHT31;56392;51.082;17.080;2024-01-15T02:37:55;1.57;82.62
69281;SHT31;56392;51.082;17.080;2024-01-15T02:43:19;1.57;82.15
69281;SHT31;56392;51.082;17.080;2024-01-15T02:48:42;1.60;81.71
69281;SHT31;56392;51.082;17.080;2024-01-15T02:54:05;1.60;81.71
69281;SHT31;56392;51.082;17.080;2024-01-15T02:59:30;1.57;82.56
69281;SHT31;56392;51.082;17.080;2024-01-15T03:04:53;1.50;82.91
69281;SHT31;56392;51.082;17.080;2024-01-15T03:10:16;1.50;82.72
69281;SHT31;56392;51.082;17.080;2024-01-15T03:15:42;1.54;82.44
69281;SHT31;56392;51.082;17.080;2024-01-15T03:21:05;1.53;82.21
69281;SHT31;56392;51.082;17.080;2024-01-15T03:26:29;1.54;81.46
69281;SHT31;56392;51.082;17.080;2024-01-15T03:31:53;1.57;81.42
69281;SHT31;56392;51.082;17.080;2024-01-15T03:37:16;1.63;81.10
69281;SHT31;56392;51.082;17.080;2024-01-15T03:42:40;1.67;80.65
69281;SHT31;56392;51.082;17.080;2024-01-15T03:48:05;1.70;80.34
69281;SHT31;56392;51.082;17.080;2024-01-15T03:53:29;1.77;79.99
69281;SHT31;56392;51.082;17.080;2024-01-15T03:58:52;1.79;79.21
69281;SHT31;56392;51.082;17.080;2024-01-15T04:04:17;1.78;78.56
69281;SHT31;56392;51.082;17.080;2024-01-15T04:09:40;1.78;78.64
69281;SHT31;56392;51.082;17.080;2024-01-15T04:15:04;1.79;78.85
69281;SHT31;56392;51.082;17.080;2024-01-15T04:20:29;1.74;78.95
69281;SHT31;56392;51.082;17.080;2024-01-15T04:25:52;1.50;79.47
69281;SHT31;56392;51.082;17.080;2024-01-15T04:31:23;1.51;79.69
69281;SHT31;56392;51.082;17.080;2024-01-15T04:36:48;1.54;79.43
69281;SHT31;56392;51.082;17.080;2024-01-15T04:42:12;1.64;79.07
69281;SHT31;56392;51.082;17.080;2024-01-15T04:47:35;1.63;79.05
69281;SHT31;56392;51.082;17.080;2024-01-15T04:53:01;1.65;78.60
69281;SHT31;56392;51.082;17.080;2024-01-15T04:58:24;1.72;78.29
69281;SHT31;56392;51.082;17.080;2024-01-15T05:03:49;1.74;77.69
69281;SHT31;56392;51.082;17.080;2024-01-15T05:09:14;1.81;77.61
69281;SHT31;56392;51.082;17.080;2024-01-15T05:14:37;1.84;77.50
69281;SHT31;56392;51.082;17.080;2024-01-15T05:20:00;1.84;77.45
69281;SHT31;56392;51.082;17.080;2024-01-15T05:25:26;1.84;77.62
69281;SHT31;56392;51.082;17.080;2024-01-15T05:30:49;1.85;78.13
69281;SHT31;56392;51.082;17.080;2024-01-15T05:36:14;1.81;79.41
69281;SHT31;56392;51.082;17.080;2024-01-15T05:41:39;1.74;81.93
69281;SHT31;56392;51.082;17.080;2024-01-15T05:47:03;1.57;87.16
69281;SHT31;56392;51.082;17.080;2024-01-15T05:52:27;1.40;87.79
69281;SHT31;56392;51.082;17.080;2024-01-15T05:57:54;1.39;88.66
69281;SHT31;56392;51.082;17.080;2024-01-15T06:03:17;1.43;88.14
69281;SHT31;56392;51.082;17.080;2024-01-15T06:08:40;1.46;87.08
69281;SHT31;56392;51.082;17.080;2024-01-15T06:14:05;1.46;86.86
69281;SHT31;56392;51.082;17.080;2024-01-15T06:19:30;1.44;86.49
69281;SHT31;56392;51.082;17.080;2024-01-15T06:24:53;1.43;86.60
69281;SHT31;56392;51.082;17.080;2024-01-15T06:30:18;1.40;86.10
69281;SHT31;56392;51.082;17.080;2024-01-15T06:35:44;1.34;85.93
69281;SHT31;56392;51.082;17.080;2024-01-15T06:41:07;1.41;85.49
69281;SHT31;56392;51.082;17.080;2024-01-15T06:46:34;1.43;85.01
69281;SHT31;56392;51.082;17.080;2024-01-15T06:51:59;1.44;85.00
69281;SHT31;56392;51.082;17.080;2024-01-15T06:57:22;1.44;84.54
69281;SHT31;56392;51.082;17.080;2024-01-15T07:02:48;1.48;84.63
69281;SHT31;56392;51.082;17.080;2024-01-15T07:08:11;1.44;84.30
69281;SHT31;56392;51.082;17.080;2024-01-15T07:13:36;1.47;83.90
69281;SHT31;56392;51.082;17.080;2024-01-15T07:19:02;1.51;83.30
69281;SHT31;56392;51.082;17.080;2024-01-15T07:24:25;1.55;83.12
69281;SHT31;56392;51.082;17.080;2024-01-15T07:29:49;1.58;82.94
69281;SHT31;56392;51.082;17.080;2024-01-15T07:35:16;1.63;82.54
69281;SHT31;56392;51.082;17.080;2024-01-15T07:40:39;1.71;81.64
69281;SHT31;56392;51.082;17.080;2024-01-15T07:46:04;1.82;79.39
69281;SHT31;56392;51.082;17.080;2024-01-15T07:51:30;2.01;77.92
69281;SHT31;56392;51.082;17.080;2024-01-15T07:56:54;2.12;76.93
69281;SHT31;56392;51.082;17.080;2024-01-15T08:02:18;2.36;75.18
69281;SHT31;56392;51.082;17.080;2024-01-15T08:07:42;2.47;73.79
69281;SHT31;56392;51.082;17.080;2024-01-15T08:13:06;2.52;73.48
69281;SHT31;56392;51.082;17.080;2024-01-15T08:18:30;2.57;72.27
69281;SHT31;56392;51.082;17.080;2024-01-15T08:23:56;2.61;71.84
69281;SHT31;56392;51.082;17.080;2024-01-15T08:29:19;2.70;71.95
69281;SHT31;56392;51.082;17.080;2024-01-15T08:34:43;2.91;70.09
69281;SHT31;56392;51.082;17.080;2024-01-15T08:40:11;2.90;70.18
69281;SHT31;56392;51.082;17.080;2024-01-15T08:45:37;2.84;70.24
69281;SHT31;56392;51.082;17.080;2024-01-15T08:51:00;2.70;70.31
69281;SHT31;56392;51.082;17.080;2024-01-15T08:56:26;2.72;69.43
69281;SHT31;56392;51.082;17.080;2024-01-15T09:01:50;3.14;69.36
69281;SHT31;56392;51.082;17.080;2024-01-15T09:07:15;3.24;68.36
69281;SHT31;56392;51.082;17.080;2024-01-15T09:12:42;3.21;67.62
69281;SHT31;56392;51.082;17.080;2024-01-15T09:18:06;3.24;67.09
69281;SHT31;56392;51.082;17.080;2024-01-15T09:23:29;3.36;67.56
69281;SHT31;56392;51.082;17.080;2024-01-15T09:28:59;3.36;66.85
69281;SHT31;56392;51.082;17.080;2024-01-15T09:34:23;3.36;66.98
69281;SHT31;56392;51.082;17.080;2024-01-15T09:39:46;3.38;67.04
69281;SHT31;56392;51.082;17.080;2024-01-15T09:45:11;3.22;66.94
69281;SHT31;56392;51.082;17.080;2024-01-15T09:50:35;3.25;67.29
69281;SHT31;56392;51.082;17.080;2024-01-15T09:56:00;3.56;66.26
69281;SHT31;56392;51.082;17.080;2024-01-15T10:01:26;3.52;65.76
69281;SHT31;56392;51.082;17.080;2024-01-15T10:06:51;3.62;65.92
69281;SHT31;56392;51.082;17.080;2024-01-15T10:12:16;3.60;65.30
69281;SHT31;56392;51.082;17.080;2024-01-15T10:17:41;3.67;65.41
69281;SHT31;56392;51.082;17.080;2024-01-15T10:23:05;3.80;65.10
69281;SHT31;56392;51.082;17.080;2024-01-15T10:28:31;3.83;64.68
69281;SHT31;56392;51.082;17.080;2024-01-15T10:34:09;3.94;64.43
69281;SHT31;56392;51.082;17.080;2024-01-15T10:39:33;4.10;64.21
69281;SHT31;56392;51.082;17.080;2024-01-15T10:44:56;4.35;63.05
69281;SHT31;56392;51.082;17.080;2024-01-15T10:50:21;4.41;62.56
69281;SHT31;56392;51.082;17.080;2024-01-15T10:55:46;4.66;61.84
69281;SHT31;56392;51.082;17.080;2024-01-15T11:01:13;5.16;61.24
69281;SHT31;56392;51.082;17.080;2024-01-15T11:06:45;5.01;60.08
69281;SHT31;56392;51.082;17.080;2024-01-15T11:12:12;4.73;61.59
69281;SHT31;56392;51.082;17.080;2024-01-15T11:17:58;4.51;61.86
69281;SHT31;56392;51.082;17.080;2024-01-15T11:23:47;4.48;62.05
69281;SHT31;56392;51.082;17.080;2024-01-15T11:29:29;4.71;61.43
69281;SHT31;56392;51.082;17.080;2024-01-15T11:34:56;4.83;61.28
69281;SHT31;56392;51.082;17.080;2024-01-15T11:40:37;4.35;62.45
69281;SHT31;56392;51.082;17.080;2024-01-15T11:46:02;4.33;62.15
69281;SHT31;56392;51.082;17.080;2024-01-15T11:51:25;4.16;62.94
69281;SHT31;56392;51.082;17.080;2024-01-15T11:56:50;4.00;63.36
69281;SHT31;56392;51.082;17.080;2024-01-15T12:02:15;4.20;63.19
69281;SHT31;56392;51.082;17.080;2024-01-15T12:07:39;4.52;62.19
69281;SHT31;56392;51.082;17.080;2024-01-15T12:13:05;4.57;61.77
69281;SHT31;56392;51.082;17.080;2024-01-15T12:18:30;4.49;61.81
69281;SHT31;56392;51.082;17.080;2024-01-15T12:23:56;4.16;62.49
69281;SHT31;56392;51.082;17.080;2024-01-15T12:29:21;4.00;63.06
69281;SHT31;56392;51.082;17.080;2024-01-15T12:34:45;4.00;63.17
69281;SHT31;56392;51.082;17.080;2024-01-15T12:40:10;3.89;62.96
69281;SHT31;56392;51.082;17.080;2024-01-15T12:45:36;3.96;62.84
69281;SHT31;56392;51.082;17.080;2024-01-15T12:51:01;3.96;63.04
69281;SHT31;56392;51.082;17.080;2024-01-15T12:56:29;3.93;62.61
69281;SHT31;56392;51.082;17.080;2024-01-15T13:01:57;4.10;62.77
69281;SHT31;56392;51.082;17.080;2024-01-15T13:07:24;4.01;62.93
69281;SHT31;56392;51.082;17.080;2024-01-15T13:12:47;3.93;63.14
69281;SHT31;56392;51.082;17.080;2024-01-15T13:18:14;3.76;63.58
69281;SHT31;56392;51.082;17.080;2024-01-15T13:23:37;3.69;63.70
69281;SHT31;56392;51.082;17.080;2024-01-15T13:29:01;3.58;64.36
69281;SHT31;56392;51.082;17.080;2024-01-15T13:34:26;3.58;63.89
69281;SHT31;56392;51.082;17.080;2024-01-15T13:39:50;3.45;64.55
69281;SHT31;56392;51.082;17.080;2024-01-15T13:45:16;3.42;64.25
69281;SHT31;56392;51.082;17.080;2024-01-15T13:50:41;3.42;64.59
69281;SHT31;56392;51.082;17.080;2024-01-15T13:56:05;3.29;65.07
69281;SHT31;56392;51.082;17.080;2024-01-15T14:01:29;3.25;65.31
69281;SHT31;56392;51.082;17.080;2024-01-15T14:06:54;3.21;65.39
69281;SHT31;56392;51.082;17.080;2024-01-15T14:12:18;3.19;65.15
69281;SHT31;56392;51.082;17.080;2024-01-15T14:17:41;3.16;65.91
69281;SHT31;56392;51.082;17.080;2024-01-15T14:23:12;3.04;65.98
69281;SHT31;56392;51.082;17.080;2024-01-15T14:28:37;2.98;66.71
69281;SHT31;56392;51.082;17.080;2024-01-15T14:34:01;2.90;66.02
69281;SHT31;56392;51.082;17.080;2024-01-15T14:39:27;2.83;66.57
69281;SHT31;56392;51.082;17.080;2024-01-15T14:44:51;2.76;67.12
69281;SHT31;56392;51.082;17.080;2024-01-15T14:50:16;2.68;67.29
69281;SHT31;56392;51.082;17.080;2024-01-15T14:55:47;2.63;67.36
69281;SHT31;56392;51.082;17.080;2024-01-15T15:01:10;2.56;67.36
69281;SHT31;56392;51.082;17.080;2024-01-15T15:06:33;2.50;67.71
69281;SHT31;56392;51.082;17.080;2024-01-15T15:11:58;2.49;67.80
69281;SHT31;56392;51.082;17.080;2024-01-15T15:17:22;2.43;67.65
69281;SHT31;56392;51.082;17.080;2024-01-15T15:22:46;2.44;67.94
69281;SHT31;56392;51.082;17.080;2024-01-15T15:28:11;2.39;67.97
69281;SHT31;56392;51.082;17.080;2024-01-15T15:33:39;2.36;68.10
69281;SHT31;56392;51.082;17.080;2024-01-15T15:39:03;2.35;68.23
69281;SHT31;56392;51.082;17.080;2024-01-15T15:44:32;2.35;68.53
69281;SHT31;56392;51.082;17.080;2024-01-15T15:49:55;2.33;69.75
69281;SHT31;56392;51.082;17.080;2024-01-15T15:55:20;2.29;69.05
69281;SHT31;56392;51.082;17.080;2024-01-15T16:00:47;2.30;69.45
69281;SHT31;56392;51.082;17.080;2024-01-15T16:06:12;2.26;69.86
69281;SHT31;56392;51.082;17.080;2024-01-15T16:11:35;2.26;70.64
69281;SHT31;56392;51.082;17.080;2024-01-15T16:17:00;2.22;71.30
69281;SHT31;56392;51.082;17.080;2024-01-15T16:22:29;2.19;72.12
69281;SHT31;56392;51.082;17.080;2024-01-15T16:27:55;2.13;72.68
69281;SHT31;56392;51.082;17.080;2024-01-15T16:33:19;2.06;73.48
69281;SHT31;56392;51.082;17.080;2024-01-15T16:38:43;2.08;73.80
69281;SHT31;56392;51.082;17.080;2024-01-15T16:44:06;2.01;75.16
69281;SHT31;56392;51.082;17.080;2024-01-15T16:49:35;1.94;75.62
69281;SHT31;56392;51.082;17.080;2024-01-15T16:54:59;1.94;75.50
69281;SHT31;56392;51.082;17.080;2024-01-15T17:00:23;1.92;75.63
69281;SHT31;56392;51.082;17.080;2024-01-15T17:05:51;1.89;76.80
69281;SHT31;56392;51.082;17.080;2024-01-15T17:11:15;1.79;77.43
69281;SHT31;56392;51.082;17.080;2024-01-15T17:16:40;1.78;77.11
69281;SHT31;56392;51.082;17.080;2024-01-15T17:22:06;1.79;76.90
69281;SHT31;56392;51.082;17.080;2024-01-15T17:27:30;1.81;76.73
69281;SHT31;56392;51.082;17.080;2024-01-15T17:32:54;1.81;76.62
69281;SHT31;56392;51.082;17.080;2024-01-15T17:38:20;1.84;76.52
69281;SHT31;56392;51.082;17.080;2024-01-15T17:43:43;1.81;76.46
69281;SHT31;56392;51.082;17.080;2024-01-15T17:49:07;1.82;76.46
69281;SHT31;56392;51.082;17.080;2024-01-15T17:54:32;1.85;76.27
69281;SHT31;56392;51.082;17.080;2024-01-15T17:59:56;1.85;75.39
69281;SHT31;56392;51.082;17.080;2024-01-15T18:05:19;1.94;74.23
69281;SHT31;56392;51.082;17.080;2024-01-15T18:10:43;2.03;73.69
69281;SHT31;56392;51.082;17.080;2024-01-15T18:16:08;2.11;73.84
69281;SHT31;56392;51.082;17.080;2024-01-15T18:21:33;2.05;74.65
69281;SHT31;56392;51.082;17.080;2024-01-15T18:26:58;1.99;75.18
69281;SHT31;56392;51.082;17.080;2024-01-15T18:32:29;1.92;75.28
69281;SHT31;56392;51.082;17.080;2024-01-15T18:37:53;1.95;75.25
69281;SHT31;56392;51.082;17.080;2024-01-15T18:43:21;1.94;75.31
69281;SHT31;56392;51.082;17.080;2024-01-15T18:48:44;1.91;75.51
69281;SHT31;56392;51.082;17.080;2024-01-15T18:54:08;1.85;75.63
69281;SHT31;56392;51.082;17.080;2024-01-15T18:59:42;1.81;75.85
69281;SHT31;56392;51.082;17.080;2024-01-15T19:05:08;1.70;76.26
69281;SHT31;56392;51.082;17.080;2024-01-15T19:10:33;1.64;76.63
69281;SHT31;56392;51.082;17.080;2024-01-15T19:16:01;1.61;76.33
69281;SHT31;56392;51.082;17.080;2024-01-15T19:21:31;1.58;76.23
69281;SHT31;56392;51.082;17.080;2024-01-15T19:26:55;1.50;76.48
69281;SHT31;56392;51.082;17.080;2024-01-15T19:32:19;1.54;76.31
69281;SHT31;56392;51.082;17.080;2024-01-15T19:37:43;1.65;76.13
69281;SHT31;56392;51.082;17.080;2024-01-15T19:43:07;1.68;76.22
69281;SHT31;56392;51.082;17.080;2024-01-15T19:48:33;1.71;76.13
69281;SHT31;56392;51.082;17.080;2024-01-15T19:53:58;1.70;76.22
69281;SHT31;56392;51.082;17.080;2024-01-15T19:59:21;1.71;76.42
69281;SHT31;56392;51.082;17.080;2024-01-15T20:04:46;1.72;76.86
69281;SHT31;56392;51.082;17.080;2024-01-15T20:10:09;1.65;78.22
69281;SHT31;56392;51.082;17.080;2024-01-15T20:15:33;1.58;79.05
69281;SHT31;56392;51.082;17.080;2024-01-15T20:20:59;1.55;80.06
69281;SHT31;56392;51.082;17.080;2024-01-15T20:26:25;1.50;80.54
69281;SHT31;56392;51.082;17.080;2024-01-15T20:31:49;1.46;80.90
69281;SHT31;56392;51.082;17.080;2024-01-15T20:37:14;1.44;80.66
69281;SHT31;56392;51.082;17.080;2024-01-15T20:42:39;1.46;80.51
69281;SHT31;56392;51.082;17.080;2024-01-15T20:48:03;1.51;80.14
69281;SHT31;56392;51.082;17.080;2024-01-15T20:53:30;1.50;79.75
69281;SHT31;56392;51.082;17.080;2024-01-15T20:58:54;1.53;79.95
69281;SHT31;56392;51.082;17.080;2024-01-15T21:04:18;1.50;80.05
69281;SHT31;56392;51.082;17.080;2024-01-15T21:09:53;1.50;79.94
69281;SHT31;56392;51.082;17.080;2024-01-15T21:15:19;1.47;80.03
69281;SHT31;56392;51.082;17.080;2024-01-15T21:20:43;1.50;80.02
69281;SHT31;56392;51.082;17.080;2024-01-15T21:26:08;1.48;80.02
69281;SHT31;56392;51.082;17.080;2024-01-15T21:31:36;1.50;79.99
69281;SHT31;56392;51.082;17.080;2024-01-15T21:37:00;1.44;80.07
69281;SHT31;56392;51.082;17.080;2024-01-15T21:42:26;1.47;79.81
69281;SHT31;56392;51.082;17.080;2024-01-15T21:47:49;1.36;79.88
69281;SHT31;56392;51.082;17.080;2024-01-15T21:53:12;1.46;79.61
69281;SHT31;56392;51.082;17.080;2024-01-15T21:58:40;1.36;79.67
69281;SHT31;56392;51.082;17.080;2024-01-15T22:04:03;1.39;79.46
69281;SHT31;56392;51.082;17.080;2024-01-15T22:09:30;1.43;79.32
69281;SHT31;56392;51.082;17.080;2024-01-15T22:14:55;1.47;79.26
69281;SHT31;56392;51.082;17.080;2024-01-15T22:20:20;1.50;79.06
69281;SHT31;56392;51.082;17.080;2024-01-15T22:25:44;1.54;79.10
69281;SHT31;56392;51.082;17.080;2024-01-15T22:31:08;1.53;79.11
69281;SHT31;56392;51.082;17.080;2024-01-15T22:36:32;1.60;79.16
69281;SHT31;56392;51.082;17.080;2024-01-15T22:41:55;1.58;79.13
69281;SHT31;56392;51.082;17.080;2024-01-15T22:47:22;1.57;79.20
69281;SHT31;56392;51.082;17.080;2024-01-15T22:52:45;1.51;79.33
69281;SHT31;56392;51.082;17.080;2024-01-15T22:58:10;1.53;79.40
69281;SHT31;56392;51.082;17.080;2024-01-15T23:03:35;1.53;79.34
69281;SHT31;56392;51.082;17.080;2024-01-15T23:09:00;1.46;81.54
69281;SHT31;56392;51.082;17.080;2024-01-15T23:14:24;1.44;81.79
69281;SHT31;56392;51.082;17.080;2024-01-15T23:19:49;1.48;81.94
69281;SHT31;56392;51.082;17.080;2024-01-15T23:25:13;1.37;84.70
69281;SHT31;56392;51.082;17.080;2024-01-15T23:30:41;1.20;86.39
69281;SHT31;56392;51.082;17.080;2024-01-15T23:36:09;1.10;87.73
69281;SHT31;56392;51.082;17.080;2024-01-15T23:41:36;1.04;88.80
69281;SHT31;56392;51.082;17.080;2024-01-15T23:47:00;0.93;89.78
69281;SHT31;56392;51.082;17.080;2024-01-15T23:52:26;0.93;90.40
69281;SHT31;56392;51.082;17.080;2024-01-15T23:57:50;0.93;90.77
